Weather History for Philadelphia Wings Airport, PA

Change the Weather History Date:

Wednesday, November 2, 2011

  Actual Average (KPNE) Record (KPNE)
Temperature  
Mean Temperature 46 °F -  
Max Temperature 60 °F 57 °F 77 °F (2001)
Min Temperature 32 °F 39 °F 32 °F (2010)
Degree Days  
Heating Degree Days 19    
Moisture  
Dew Point 37 °F    
Average Humidity 75    
Maximum Humidity 100    
Minimum Humidity 42    
Precipitation  
Precipitation 0.00 in - - ()
Sea Level Pressure  
Sea Level Pressure 30.35 in    
Wind  
Wind Speed - (North)    
Max Wind Speed -    
Max Gust Speed -    
Visibility 8 miles    
Events      
Averages and records for this station are not official NWS values.
T = Trace of Precipitation, MM = Missing Value Source: NWS Daily Summary

Daily Weather History Graph

Daily Weather History Graph

Search for Another Location

Airport:

Trip Planner

Search our weather history database for the weather conditions in past years. The results will help you decide how hot, cold, wet, or windy it might be!

Date:

Astronomy

Nov. 02, 2011 Rise Set
Actual Time 7:31 AM EDT 5:57 PM EDT
Civil Twilight 7:02 AM EDT 6:25 PM EDT
Nautical Twilight 6:30 AM EDT 6:57 PM EDT
Astronomical Twilight 5:59 AM EDT 7:29 PM EDT
Moon 1:49 PM EDT (11/2) No Moon Set
Length of Visible Light 11h 22m
Length of Day
10h 26m
Waxing Crescent, 50% of the Moon is Illuminated
Nov 2
Waxing Crescent
Nov 2
First Quarter
Nov 10
Full
Nov 18
Last Quarter
Nov 25
New

Hourly Weather History & Observations

Time (EDT) Temp. Dew Point Humidity Pressure Visibility Wind Dir Wind Speed Gust Speed Precip Events Conditions
12:15 AM 35.6 °F 33.8 °F 93% 30.34 in 10.0 mi North - - N/A   Clear
12:35 AM 33.8 °F 33.8 °F 100% 30.34 in 10.0 mi North - - N/A   Clear
12:55 AM 35.6 °F 35.6 °F 100% 30.34 in 10.0 mi North - - N/A   Clear
1:15 AM 33.8 °F 33.8 °F 100% 30.34 in 7.0 mi North - - N/A   Clear
1:35 AM 35.6 °F 35.6 °F 100% 30.34 in 7.0 mi North - - N/A   Clear
1:55 AM 35.6 °F 33.8 °F 93% 30.34 in 7.0 mi North - - N/A   Clear
2:15 AM 33.8 °F 33.8 °F 100% 30.34 in 7.0 mi North - - N/A   Clear
2:35 AM 33.8 °F 33.8 °F 100% 30.34 in 7.0 mi North - - N/A   Clear
2:55 AM 33.8 °F 33.8 °F 100% 30.35 in 5.0 mi North - - N/A   Clear
3:15 AM 33.8 °F 33.8 °F 100% 30.34 in 4.0 mi North - - N/A   Clear
3:35 AM 32.0 °F 32.0 °F 100% 30.35 in 7.0 mi North - - N/A   Clear
3:55 AM 32.0 °F 32.0 °F 100% 30.35 in 4.0 mi North - - N/A   Clear
4:15 AM 32.0 °F 32.0 °F 100% 30.35 in 1.0 mi North - - N/A   Unknown
4:35 AM 32.0 °F 32.0 °F 100% 30.36 in 7.0 mi North - - N/A   Clear
4:55 AM 32.0 °F 32.0 °F 100% 30.36 in 5.0 mi North - - N/A   Clear
5:55 AM 32.0 °F 32.0 °F 100% 30.38 in 4.0 mi North - - N/A   Clear
6:55 AM 32.0 °F 32.0 °F 100% 30.39 in 4.0 mi North - - N/A   Clear
7:15 AM 32.0 °F 32.0 °F 100% 30.40 in 1.5 mi North - - N/A   Unknown
7:35 AM 32.0 °F 32.0 °F 100% 30.40 in 7.0 mi North - - N/A   Clear
7:55 AM 32.0 °F 32.0 °F 100% 30.41 in 2.5 mi North - - N/A   Unknown
8:35 AM 33.8 °F 33.8 °F 100% 30.42 in 5.0 mi North - - N/A   Clear
8:55 AM 37.4 °F 35.6 °F 93% 30.42 in 7.0 mi North - - N/A   Clear
9:15 AM 41.0 °F 37.4 °F 87% 30.42 in 10.0 mi North - - N/A   Clear
9:35 AM 42.8 °F 39.2 °F 87% 30.42 in 10.0 mi North - - N/A   Clear
9:55 AM 44.6 °F 37.4 °F 76% 30.41 in 10.0 mi North - - N/A   Clear
10:15 AM 46.4 °F 39.2 °F 76% 30.41 in 10.0 mi North - - N/A   Clear
10:35 AM 50.0 °F 41.0 °F 71% 30.41 in 10.0 mi North - - N/A   Clear
10:55 AM 51.8 °F 37.4 °F 58% 30.41 in 10.0 mi North - - N/A   Clear
11:15 AM 53.6 °F 37.4 °F 54% 30.40 in 10.0 mi North - - N/A   Clear
11:35 AM 53.6 °F 37.4 °F 54% 30.40 in 10.0 mi North - - N/A   Clear
11:55 AM 55.4 °F 39.2 °F 54% 30.39 in 10.0 mi North - - N/A   Clear
12:15 PM 55.4 °F 37.4 °F 51% 30.39 in 10.0 mi North - - N/A   Clear
12:35 PM 57.2 °F 39.2 °F 51% 30.38 in 10.0 mi North - - N/A   Clear
12:55 PM 59.0 °F 39.2 °F 48% 30.37 in 10.0 mi North - - N/A   Clear
1:15 PM 59.0 °F 37.4 °F 45% 30.35 in 10.0 mi North - - N/A   Clear
1:35 PM 59.0 °F 37.4 °F 45% 30.34 in 10.0 mi North - - N/A   Clear
1:55 PM 59.0 °F 37.4 °F 45% 30.34 in 10.0 mi North - - N/A   Clear
2:15 PM 59.0 °F 37.4 °F 45% 30.33 in 10.0 mi North - - N/A   Clear
2:35 PM 60.8 °F 37.4 °F 42% 30.32 in 10.0 mi North - - N/A   Clear
2:55 PM 60.8 °F 37.4 °F 42% 30.32 in 10.0 mi North - - N/A   Clear
3:15 PM 60.8 °F 37.4 °F 42% 30.31 in 10.0 mi North - - N/A   Clear
3:35 PM 60.8 °F 37.4 °F 42% 30.31 in 10.0 mi North - - N/A   Clear
3:55 PM 60.8 °F 37.4 °F 42% 30.30 in 10.0 mi North - - N/A   Clear
4:15 PM 60.8 °F 39.2 °F 45% 30.30 in 10.0 mi North - - N/A   Clear
4:35 PM 59.0 °F 37.4 °F 45% 30.30 in 10.0 mi North - - N/A   Clear
4:55 PM 59.0 °F 39.2 °F 48% 30.29 in 10.0 mi North - - N/A   Clear
5:15 PM 59.0 °F 37.4 °F 45% 30.28 in 10.0 mi North - - N/A   Clear
5:35 PM 55.4 °F 39.2 °F 54% 30.29 in 10.0 mi North - - N/A   Clear
5:55 PM 53.6 °F 39.2 °F 58% 30.29 in 10.0 mi North - - N/A   Clear
6:15 PM 50.0 °F 41.0 °F 71% 30.28 in 10.0 mi North - - N/A   Clear
6:35 PM 48.2 °F 41.0 °F 76% 30.29 in 10.0 mi North - - N/A   Clear
6:55 PM 46.4 °F 41.0 °F 81% 30.29 in 10.0 mi North - - N/A   Clear
7:15 PM 44.6 °F 41.0 °F 87% 30.29 in 10.0 mi North - - N/A   Clear
7:35 PM 46.4 °F 41.0 °F 81% 30.29 in 10.0 mi North - - N/A   Clear
7:55 PM 42.8 °F 41.0 °F 93% 30.29 in 10.0 mi North - - N/A   Clear
8:15 PM 42.8 °F 41.0 °F 93% 30.28 in 10.0 mi North - - N/A   Clear
8:35 PM 42.8 °F 41.0 °F 93% 30.28 in 10.0 mi North - - N/A   Clear
8:55 PM 41.0 °F 39.2 °F 93% 30.28 in 10.0 mi North - - N/A   Clear
9:15 PM 42.8 °F 41.0 °F 93% 30.28 in 10.0 mi North - - N/A   Clear
9:35 PM 41.0 °F 37.4 °F 87% 30.28 in 10.0 mi North - - N/A   Clear
9:55 PM 41.0 °F 39.2 °F 93% 30.28 in 10.0 mi North - - N/A   Clear
10:15 PM 41.0 °F 37.4 °F 87% 30.28 in 7.0 mi North - - N/A   Clear
10:35 PM 41.0 °F 39.2 °F 93% 30.28 in 10.0 mi North - - N/A   Clear
10:55 PM 39.2 °F 37.4 °F 93% 30.27 in 10.0 mi North - - N/A   Clear
11:15 PM 39.2 °F 37.4 °F 93% 30.27 in 10.0 mi North - - N/A   Clear
11:35 PM 37.4 °F 37.4 °F 100% 30.26 in 5.0 mi North - - N/A   Clear
11:55 PM 37.4 °F 35.6 °F 93% 30.26 in 3.0 mi North - - N/A   Clear